sensor_id;sensor_type;location;lat;lon;timestamp;pressure;altitude;pressure_sealevel;temperature
10058;BMP180;5068;51.286;7.518;2023-10-19T00:01:13;97345.00;;;14.50
10058;BMP180;5068;51.286;7.518;2023-10-19T00:02:49;97337.00;;;14.50
10058;BMP180;5068;51.286;7.518;2023-10-19T00:04:25;97336.00;;;14.50
10058;BMP180;5068;51.286;7.518;2023-10-19T00:05:58;97338.00;;;14.50
10058;BMP180;5068;51.286;7.518;2023-10-19T00:07:30;97329.00;;;14.50
10058;BMP180;5068;51.286;7.518;2023-10-19T00:09:06;97325.00;;;14.50
10058;BMP180;5068;51.286;7.518;2023-10-19T00:10:45;97315.00;;;14.50
10058;BMP180;5068;51.286;7.518;2023-10-19T00:12:20;97313.00;;;14.60
10058;BMP180;5068;51.286;7.518;2023-10-19T00:13:54;97317.00;;;14.60
10058;BMP180;5068;51.286;7.518;2023-10-19T00:15:31;97321.00;;;14.60
10058;BMP180;5068;51.286;7.518;2023-10-19T00:17:04;97314.00;;;14.60
10058;BMP180;5068;51.286;7.518;2023-10-19T00:18:43;97317.00;;;14.60
10058;BMP180;5068;51.286;7.518;2023-10-19T00:20:15;97310.00;;;14.60
10058;BMP180;5068;51.286;7.518;2023-10-19T00:22:08;97306.00;;;14.60
10058;BMP180;5068;51.286;7.518;2023-10-19T00:23:43;97320.00;;;14.60
10058;BMP180;5068;51.286;7.518;2023-10-19T00:25:20;97315.00;;;14.60
10058;BMP180;5068;51.286;7.518;2023-10-19T00:26:55;97313.00;;;14.70
10058;BMP180;5068;51.286;7.518;2023-10-19T00:28:28;97309.00;;;14.70
10058;BMP180;5068;51.286;7.518;2023-10-19T00:30:00;97313.00;;;14.70
10058;BMP180;5068;51.286;7.518;2023-10-19T00:31:38;97311.00;;;14.70
10058;BMP180;5068;51.286;7.518;2023-10-19T00:33:13;97308.00;;;14.80
10058;BMP180;5068;51.286;7.518;2023-10-19T00:34:50;97313.00;;;14.80
10058;BMP180;5068;51.286;7.518;2023-10-19T00:36:24;97312.00;;;14.80
10058;BMP180;5068;51.286;7.518;2023-10-19T00:37:58;97315.00;;;14.90
10058;BMP180;5068;51.286;7.518;2023-10-19T00:39:44;97318.00;;;14.90
10058;BMP180;5068;51.286;7.518;2023-10-19T00:41:27;97320.00;;;14.90
10058;BMP180;5068;51.286;7.518;2023-10-19T00:43:03;97317.00;;;14.90
10058;BMP180;5068;51.286;7.518;2023-10-19T00:44:40;97313.00;;;14.90
10058;BMP180;5068;51.286;7.518;2023-10-19T00:46:17;97307.00;;;14.90
10058;BMP180;5068;51.286;7.518;2023-10-19T00:47:57;97302.00;;;14.90
10058;BMP180;5068;51.286;7.518;2023-10-19T00:49:30;97306.00;;;14.90
10058;BMP180;5068;51.286;7.518;2023-10-19T00:51:04;97300.00;;;14.90
10058;BMP180;5068;51.286;7.518;2023-10-19T00:52:43;97310.00;;;14.90
10058;BMP180;5068;51.286;7.518;2023-10-19T00:54:29;97314.00;;;14.90
10058;BMP180;5068;51.286;7.518;2023-10-19T00:56:08;97303.00;;;14.90
10058;BMP180;5068;51.286;7.518;2023-10-19T00:57:44;97303.00;;;14.90
10058;BMP180;5068;51.286;7.518;2023-10-19T00:59:20;97314.00;;;14.90
10058;BMP180;5068;51.286;7.518;2023-10-19T01:00:55;97310.00;;;14.90
10058;BMP180;5068;51.286;7.518;2023-10-19T01:02:28;97313.00;;;14.90
10058;BMP180;5068;51.286;7.518;2023-10-19T01:04:03;97308.00;;;14.90
10058;BMP180;5068;51.286;7.518;2023-10-19T01:05:36;97307.00;;;14.90
10058;BMP180;5068;51.286;7.518;2023-10-19T01:07:10;97298.00;;;14.90
10058;BMP180;5068;51.286;7.518;2023-10-19T01:08:47;97301.00;;;14.90
10058;BMP180;5068;51.286;7.518;2023-10-19T01:10:23;97302.00;;;15.00
10058;BMP180;5068;51.286;7.518;2023-10-19T01:11:56;97299.00;;;15.00
10058;BMP180;5068;51.286;7.518;2023-10-19T01:13:35;97294.00;;;15.00
10058;BMP180;5068;51.286;7.518;2023-10-19T01:15:10;97299.00;;;15.00
10058;BMP180;5068;51.286;7.518;2023-10-19T01:16:46;97287.00;;;15.00
10058;BMP180;5068;51.286;7.518;2023-10-19T01:18:21;97298.00;;;15.00
10058;BMP180;5068;51.286;7.518;2023-10-19T01:20:01;97296.00;;;15.00
10058;BMP180;5068;51.286;7.518;2023-10-19T01:21:42;97290.00;;;15.10
10058;BMP180;5068;51.286;7.518;2023-10-19T01:23:22;97291.00;;;15.10
10058;BMP180;5068;51.286;7.518;2023-10-19T01:25:03;97291.00;;;15.10
10058;BMP180;5068;51.286;7.518;2023-10-19T01:26:37;97289.00;;;15.10
10058;BMP180;5068;51.286;7.518;2023-10-19T01:28:11;97272.00;;;15.10
10058;BMP180;5068;51.286;7.518;2023-10-19T01:29:50;97273.00;;;15.20
10058;BMP180;5068;51.286;7.518;2023-10-19T01:31:34;97272.00;;;15.20
10058;BMP180;5068;51.286;7.518;2023-10-19T01:33:15;97273.00;;;15.20
10058;BMP180;5068;51.286;7.518;2023-10-19T01:34:50;97277.00;;;15.20
10058;BMP180;5068;51.286;7.518;2023-10-19T01:36:24;97284.00;;;15.20
10058;BMP180;5068;51.286;7.518;2023-10-19T01:38:01;97277.00;;;15.20
10058;BMP180;5068;51.286;7.518;2023-10-19T01:39:36;97280.00;;;15.20
10058;BMP180;5068;51.286;7.518;2023-10-19T01:41:11;97280.00;;;15.20
10058;BMP180;5068;51.286;7.518;2023-10-19T01:42:47;97272.00;;;15.20
10058;BMP180;5068;51.286;7.518;2023-10-19T01:44:20;97254.00;;;15.20
10058;BMP180;5068;51.286;7.518;2023-10-19T01:45:54;97272.00;;;15.20
10058;BMP180;5068;51.286;7.518;2023-10-19T01:47:26;97273.00;;;15.30
10058;BMP180;5068;51.286;7.518;2023-10-19T01:49:02;97265.00;;;15.30
10058;BMP180;5068;51.286;7.518;2023-10-19T01:50:40;97270.00;;;15.30
10058;BMP180;5068;51.286;7.518;2023-10-19T01:52:13;97264.00;;;15.30
10058;BMP180;5068;51.286;7.518;2023-10-19T01:53:47;97269.00;;;15.30
10058;BMP180;5068;51.286;7.518;2023-10-19T01:55:20;97265.00;;;15.30
10058;BMP180;5068;51.286;7.518;2023-10-19T01:56:55;97260.00;;;15.40
10058;BMP180;5068;51.286;7.518;2023-10-19T01:58:29;97260.00;;;15.40
10058;BMP180;5068;51.286;7.518;2023-10-19T02:00:10;97263.00;;;15.40
10058;BMP180;5068;51.286;7.518;2023-10-19T02:01:51;97268.00;;;15.40
10058;BMP180;5068;51.286;7.518;2023-10-19T02:03:24;97266.00;;;15.40
10058;BMP180;5068;51.286;7.518;2023-10-19T02:05:00;97268.00;;;15.40
10058;BMP180;5068;51.286;7.518;2023-10-19T02:06:34;97264.00;;;15.40
10058;BMP180;5068;51.286;7.518;2023-10-19T02:08:09;97267.00;;;15.50
10058;BMP180;5068;51.286;7.518;2023-10-19T02:09:42;97272.00;;;15.50
10058;BMP180;5068;51.286;7.518;2023-10-19T02:11:19;97267.00;;;15.50
10058;BMP180;5068;51.286;7.518;2023-10-19T02:12:53;97267.00;;;15.50
10058;BMP180;5068;51.286;7.518;2023-10-19T02:14:27;97265.00;;;15.50
10058;BMP180;5068;51.286;7.518;2023-10-19T02:16:02;97257.00;;;15.50
10058;BMP180;5068;51.286;7.518;2023-10-19T02:17:34;97256.00;;;15.50
10058;BMP180;5068;51.286;7.518;2023-10-19T02:19:06;97252.00;;;15.60
10058;BMP180;5068;51.286;7.518;2023-10-19T02:20:40;97249.00;;;15.60
10058;BMP180;5068;51.286;7.518;2023-10-19T02:22:13;97243.00;;;15.60
10058;BMP180;5068;51.286;7.518;2023-10-19T02:23:46;97243.00;;;15.60
10058;BMP180;5068;51.286;7.518;2023-10-19T02:25:18;97246.00;;;15.60
10058;BMP180;5068;51.286;7.518;2023-10-19T02:26:57;97236.00;;;15.60
10058;BMP180;5068;51.286;7.518;2023-10-19T02:28:30;97237.00;;;15.60
10058;BMP180;5068;51.286;7.518;2023-10-19T02:30:12;97239.00;;;15.60
10058;BMP180;5068;51.286;7.518;2023-10-19T02:31:45;97238.00;;;15.70
10058;BMP180;5068;51.286;7.518;2023-10-19T02:33:19;97233.00;;;15.70
10058;BMP180;5068;51.286;7.518;2023-10-19T02:34:52;97235.00;;;15.70
10058;BMP180;5068;51.286;7.518;2023-10-19T02:36:24;97237.00;;;15.70
10058;BMP180;5068;51.286;7.518;2023-10-19T02:38:00;97235.00;;;15.80
10058;BMP180;5068;51.286;7.518;2023-10-19T02:39:33;97236.00;;;15.80
10058;BMP180;5068;51.286;7.518;2023-10-19T02:41:06;97242.00;;;15.80
10058;BMP180;5068;51.286;7.518;2023-10-19T02:42:40;97231.00;;;15.80
10058;BMP180;5068;51.286;7.518;2023-10-19T02:44:15;97234.00;;;15.80
10058;BMP180;5068;51.286;7.518;2023-10-19T02:45:52;97240.00;;;15.80
10058;BMP180;5068;51.286;7.518;2023-10-19T02:47:25;97240.00;;;15.80
10058;BMP180;5068;51.286;7.518;2023-10-19T02:49:02;97240.00;;;15.90
10058;BMP180;5068;51.286;7.518;2023-10-19T02:50:35;97229.00;;;15.90
10058;BMP180;5068;51.286;7.518;2023-10-19T02:52:08;97232.00;;;15.90
10058;BMP180;5068;51.286;7.518;2023-10-19T02:53:45;97219.00;;;15.90
10058;BMP180;5068;51.286;7.518;2023-10-19T02:55:17;97219.00;;;15.90
10058;BMP180;5068;51.286;7.518;2023-10-19T02:56:54;97224.00;;;15.90
10058;BMP180;5068;51.286;7.518;2023-10-19T02:58:30;97218.00;;;15.90
10058;BMP180;5068;51.286;7.518;2023-10-19T03:00:06;97223.00;;;15.90
10058;BMP180;5068;51.286;7.518;2023-10-19T03:01:43;97218.00;;;15.90
10058;BMP180;5068;51.286;7.518;2023-10-19T03:03:16;97220.00;;;16.00
10058;BMP180;5068;51.286;7.518;2023-10-19T03:04:49;97226.00;;;16.00
10058;BMP180;5068;51.286;7.518;2023-10-19T03:06:22;97231.00;;;16.00
10058;BMP180;5068;51.286;7.518;2023-10-19T03:07:54;97226.00;;;16.00
10058;BMP180;5068;51.286;7.518;2023-10-19T03:09:28;97226.00;;;16.00
10058;BMP180;5068;51.286;7.518;2023-10-19T03:11:02;97225.00;;;16.00
10058;BMP180;5068;51.286;7.518;2023-10-19T03:12:36;97212.00;;;16.00
10058;BMP180;5068;51.286;7.518;2023-10-19T03:14:14;97221.00;;;16.10
10058;BMP180;5068;51.286;7.518;2023-10-19T03:15:46;97216.00;;;16.10
10058;BMP180;5068;51.286;7.518;2023-10-19T03:17:20;97210.00;;;16.10
10058;BMP180;5068;51.286;7.518;2023-10-19T03:18:53;97210.00;;;16.10
10058;BMP180;5068;51.286;7.518;2023-10-19T03:20:27;97205.00;;;16.20
10058;BMP180;5068;51.286;7.518;2023-10-19T03:22:00;97212.00;;;16.20
10058;BMP180;5068;51.286;7.518;2023-10-19T03:23:33;97207.00;;;16.20
10058;BMP180;5068;51.286;7.518;2023-10-19T03:25:08;97201.00;;;16.20
10058;BMP180;5068;51.286;7.518;2023-10-19T03:27:09;97202.00;;;16.20
10058;BMP180;5068;51.286;7.518;2023-10-19T03:28:45;97207.00;;;16.20
10058;BMP180;5068;51.286;7.518;2023-10-19T03:30:22;97210.00;;;16.20
10058;BMP180;5068;51.286;7.518;2023-10-19T03:31:58;97206.00;;;16.20
10058;BMP180;5068;51.286;7.518;2023-10-19T03:33:32;97199.00;;;16.20
10058;BMP180;5068;51.286;7.518;2023-10-19T03:35:09;97205.00;;;16.20
10058;BMP180;5068;51.286;7.518;2023-10-19T03:36:47;97204.00;;;16.20
10058;BMP180;5068;51.286;7.518;2023-10-19T03:38:20;97203.00;;;16.20
10058;BMP180;5068;51.286;7.518;2023-10-19T03:39:55;97205.00;;;16.20
10058;BMP180;5068;51.286;7.518;2023-10-19T03:41:29;97203.00;;;16.20
10058;BMP180;5068;51.286;7.518;2023-10-19T03:43:03;97202.00;;;16.20
10058;BMP180;5068;51.286;7.518;2023-10-19T03:44:48;97197.00;;;16.20
10058;BMP180;5068;51.286;7.518;2023-10-19T03:46:27;97204.00;;;16.20
10058;BMP180;5068;51.286;7.518;2023-10-19T03:48:03;97192.00;;;16.20
10058;BMP180;5068;51.286;7.518;2023-10-19T03:49:40;97199.00;;;16.20
10058;BMP180;5068;51.286;7.518;2023-10-19T03:51:14;97205.00;;;16.20
10058;BMP180;5068;51.286;7.518;2023-10-19T03:52:46;97199.00;;;16.20
10058;BMP180;5068;51.286;7.518;2023-10-19T03:54:19;97194.00;;;16.20
10058;BMP180;5068;51.286;7.518;2023-10-19T03:55:55;97193.00;;;16.20
10058;BMP180;5068;51.286;7.518;2023-10-19T03:57:29;97200.00;;;16.20
10058;BMP180;5068;51.286;7.518;2023-10-19T03:59:02;97197.00;;;16.20
10058;BMP180;5068;51.286;7.518;2023-10-19T04:00:36;97193.00;;;16.20
10058;BMP180;5068;51.286;7.518;2023-10-19T04:02:10;97186.00;;;16.20
10058;BMP180;5068;51.286;7.518;2023-10-19T04:03:46;97184.00;;;16.20
10058;BMP180;5068;51.286;7.518;2023-10-19T04:05:19;97186.00;;;16.20
10058;BMP180;5068;51.286;7.518;2023-10-19T04:06:55;97190.00;;;16.20
10058;BMP180;5068;51.286;7.518;2023-10-19T04:08:30;97175.00;;;16.20
10058;BMP180;5068;51.286;7.518;2023-10-19T04:10:10;97181.00;;;16.20
10058;BMP180;5068;51.286;7.518;2023-10-19T04:12:01;97183.00;;;16.20
10058;BMP180;5068;51.286;7.518;2023-10-19T04:13:35;97174.00;;;16.20
10058;BMP180;5068;51.286;7.518;2023-10-19T04:15:09;97180.00;;;16.20
10058;BMP180;5068;51.286;7.518;2023-10-19T04:16:44;97171.00;;;16.20
10058;BMP180;5068;51.286;7.518;2023-10-19T04:18:18;97176.00;;;16.20
10058;BMP180;5068;51.286;7.518;2023-10-19T04:19:52;97184.00;;;16.20
10058;BMP180;5068;51.286;7.518;2023-10-19T04:21:25;97185.00;;;16.10
10058;BMP180;5068;51.286;7.518;2023-10-19T04:22:58;97182.00;;;16.10
10058;BMP180;5068;51.286;7.518;2023-10-19T04:24:31;97173.00;;;16.10
10058;BMP180;5068;51.286;7.518;2023-10-19T04:26:05;97176.00;;;16.10
10058;BMP180;5068;51.286;7.518;2023-10-19T04:27:43;97173.00;;;16.10
10058;BMP180;5068;51.286;7.518;2023-10-19T04:29:16;97171.00;;;16.10
10058;BMP180;5068;51.286;7.518;2023-10-19T04:30:50;97168.00;;;16.10
10058;BMP180;5068;51.286;7.518;2023-10-19T04:32:24;97178.00;;;16.10
10058;BMP180;5068;51.286;7.518;2023-10-19T04:33:59;97170.00;;;16.10
10058;BMP180;5068;51.286;7.518;2023-10-19T04:35:41;97168.00;;;16.10
10058;BMP180;5068;51.286;7.518;2023-10-19T04:37:15;97170.00;;;16.00
10058;BMP180;5068;51.286;7.518;2023-10-19T04:38:50;97169.00;;;16.00
10058;BMP180;5068;51.286;7.518;2023-10-19T04:40:24;97171.00;;;16.00
10058;BMP180;5068;51.286;7.518;2023-10-19T04:41:56;97162.00;;;16.00
10058;BMP180;5068;51.286;7.518;2023-10-19T04:43:29;97166.00;;;16.00
10058;BMP180;5068;51.286;7.518;2023-10-19T04:45:02;97164.00;;;15.90
10058;BMP180;5068;51.286;7.518;2023-10-19T04:46:37;97176.00;;;15.90
10058;BMP180;5068;51.286;7.518;2023-10-19T04:48:09;97160.00;;;15.90
10058;BMP180;5068;51.286;7.518;2023-10-19T04:49:44;97159.00;;;15.90
10058;BMP180;5068;51.286;7.518;2023-10-19T04:51:16;97159.00;;;15.90
10058;BMP180;5068;51.286;7.518;2023-10-19T04:52:50;97156.00;;;15.90
10058;BMP180;5068;51.286;7.518;2023-10-19T04:54:22;97156.00;;;15.90
10058;BMP180;5068;51.286;7.518;2023-10-19T04:55:56;97157.00;;;15.90
10058;BMP180;5068;51.286;7.518;2023-10-19T04:57:28;97147.00;;;15.90
10058;BMP180;5068;51.286;7.518;2023-10-19T04:59:02;97155.00;;;15.90
10058;BMP180;5068;51.286;7.518;2023-10-19T05:00:35;97160.00;;;15.90
10058;BMP180;5068;51.286;7.518;2023-10-19T05:02:08;97159.00;;;15.90
10058;BMP180;5068;51.286;7.518;2023-10-19T05:03:42;97162.00;;;15.90
10058;BMP180;5068;51.286;7.518;2023-10-19T05:05:18;97158.00;;;15.90
10058;BMP180;5068;51.286;7.518;2023-10-19T05:06:50;97153.00;;;15.80
10058;BMP180;5068;51.286;7.518;2023-10-19T05:08:24;97158.00;;;15.80
10058;BMP180;5068;51.286;7.518;2023-10-19T05:09:57;97160.00;;;15.80
10058;BMP180;5068;51.286;7.518;2023-10-19T05:11:31;97162.00;;;15.80
10058;BMP180;5068;51.286;7.518;2023-10-19T05:13:04;97152.00;;;15.80
10058;BMP180;5068;51.286;7.518;2023-10-19T05:14:37;97152.00;;;15.80
10058;BMP180;5068;51.286;7.518;2023-10-19T05:16:10;97164.00;;;15.80
10058;BMP180;5068;51.286;7.518;2023-10-19T05:17:43;97156.00;;;15.80
10058;BMP180;5068;51.286;7.518;2023-10-19T05:19:16;97163.00;;;15.80
10058;BMP180;5068;51.286;7.518;2023-10-19T05:20:52;97162.00;;;15.80
10058;BMP180;5068;51.286;7.518;2023-10-19T05:22:27;97158.00;;;15.70
10058;BMP180;5068;51.286;7.518;2023-10-19T05:24:02;97162.00;;;15.70
10058;BMP180;5068;51.286;7.518;2023-10-19T05:25:35;97157.00;;;15.70
10058;BMP180;5068;51.286;7.518;2023-10-19T05:27:08;97160.00;;;15.70
10058;BMP180;5068;51.286;7.518;2023-10-19T05:28:44;97156.00;;;15.70
10058;BMP180;5068;51.286;7.518;2023-10-19T05:30:16;97157.00;;;15.70
10058;BMP180;5068;51.286;7.518;2023-10-19T05:31:51;97161.00;;;15.70
10058;BMP180;5068;51.286;7.518;2023-10-19T05:33:27;97155.00;;;15.70
10058;BMP180;5068;51.286;7.518;2023-10-19T05:35:03;97162.00;;;15.70
10058;BMP180;5068;51.286;7.518;2023-10-19T05:36:38;97151.00;;;15.70
10058;BMP180;5068;51.286;7.518;2023-10-19T05:38:11;97162.00;;;15.70
10058;BMP180;5068;51.286;7.518;2023-10-19T05:39:44;97159.00;;;15.70
10058;BMP180;5068;51.286;7.518;2023-10-19T05:41:17;97162.00;;;15.70
10058;BMP180;5068;51.286;7.518;2023-10-19T05:42:50;97153.00;;;15.70
10058;BMP180;5068;51.286;7.518;2023-10-19T05:44:23;97157.00;;;15.70
10058;BMP180;5068;51.286;7.518;2023-10-19T05:45:57;97157.00;;;15.70
10058;BMP180;5068;51.286;7.518;2023-10-19T05:47:30;97165.00;;;15.70
10058;BMP180;5068;51.286;7.518;2023-10-19T05:49:03;97162.00;;;15.70
10058;BMP180;5068;51.286;7.518;2023-10-19T05:50:38;97161.00;;;15.70
10058;BMP180;5068;51.286;7.518;2023-10-19T05:52:11;97164.00;;;15.70
10058;BMP180;5068;51.286;7.518;2023-10-19T05:53:45;97167.00;;;15.70
10058;BMP180;5068;51.286;7.518;2023-10-19T05:55:17;97169.00;;;15.60
10058;BMP180;5068;51.286;7.518;2023-10-19T05:56:53;97171.00;;;15.60
10058;BMP180;5068;51.286;7.518;2023-10-19T05:58:26;97167.00;;;15.60
10058;BMP180;5068;51.286;7.518;2023-10-19T05:59:59;97160.00;;;15.60
10058;BMP180;5068;51.286;7.518;2023-10-19T06:01:32;97169.00;;;15.60
10058;BMP180;5068;51.286;7.518;2023-10-19T06:03:05;97166.00;;;15.60
10058;BMP180;5068;51.286;7.518;2023-10-19T06:04:38;97168.00;;;15.60
10058;BMP180;5068;51.286;7.518;2023-10-19T06:06:11;97166.00;;;15.60
10058;BMP180;5068;51.286;7.518;2023-10-19T06:07:48;97160.00;;;15.60
10058;BMP180;5068;51.286;7.518;2023-10-19T06:09:21;97167.00;;;15.60
10058;BMP180;5068;51.286;7.518;2023-10-19T06:11:01;97165.00;;;15.60
10058;BMP180;5068;51.286;7.518;2023-10-19T06:12:33;97172.00;;;15.60
10058;BMP180;5068;51.286;7.518;2023-10-19T06:14:09;97174.00;;;15.60
10058;BMP180;5068;51.286;7.518;2023-10-19T06:15:42;97162.00;;;15.60
10058;BMP180;5068;51.286;7.518;2023-10-19T06:17:15;97169.00;;;15.60
10058;BMP180;5068;51.286;7.518;2023-10-19T06:18:51;97173.00;;;15.60
10058;BMP180;5068;51.286;7.518;2023-10-19T06:20:23;97171.00;;;15.50
10058;BMP180;5068;51.286;7.518;2023-10-19T06:21:58;97179.00;;;15.50
10058;BMP180;5068;51.286;7.518;2023-10-19T06:23:33;97177.00;;;15.50
10058;BMP180;5068;51.286;7.518;2023-10-19T06:25:08;97182.00;;;15.50
10058;BMP180;5068;51.286;7.518;2023-10-19T06:26:42;97183.00;;;15.50
10058;BMP180;5068;51.286;7.518;2023-10-19T06:28:15;97171.00;;;15.50
10058;BMP180;5068;51.286;7.518;2023-10-19T06:29:47;97178.00;;;15.50
10058;BMP180;5068;51.286;7.518;2023-10-19T06:31:21;97180.00;;;15.50
10058;BMP180;5068;51.286;7.518;2023-10-19T06:32:58;97184.00;;;15.50
10058;BMP180;5068;51.286;7.518;2023-10-19T06:34:33;97174.00;;;15.50
10058;BMP180;5068;51.286;7.518;2023-10-19T06:36:06;97193.00;;;15.50
10058;BMP180;5068;51.286;7.518;2023-10-19T06:37:39;97179.00;;;15.50
10058;BMP180;5068;51.286;7.518;2023-10-19T06:39:13;97181.00;;;15.50
10058;BMP180;5068;51.286;7.518;2023-10-19T06:40:47;97190.00;;;15.50
10058;BMP180;5068;51.286;7.518;2023-10-19T06:42:21;97192.00;;;15.50
10058;BMP180;5068;51.286;7.518;2023-10-19T06:43:53;97189.00;;;15.50
10058;BMP180;5068;51.286;7.518;2023-10-19T06:45:27;97188.00;;;15.50
10058;BMP180;5068;51.286;7.518;2023-10-19T06:47:01;97186.00;;;15.50
10058;BMP180;5068;51.286;7.518;2023-10-19T06:48:35;97196.00;;;15.50
10058;BMP180;5068;51.286;7.518;2023-10-19T06:50:09;97186.00;;;15.50
10058;BMP180;5068;51.286;7.518;2023-10-19T06:51:42;97189.00;;;15.50
10058;BMP180;5068;51.286;7.518;2023-10-19T06:53:15;97191.00;;;15.50
10058;BMP180;5068;51.286;7.518;2023-10-19T06:54:50;97189.00;;;15.50
10058;BMP180;5068;51.286;7.518;2023-10-19T06:56:22;97189.00;;;15.50
10058;BMP180;5068;51.286;7.518;2023-10-19T06:57:56;97190.00;;;15.50
10058;BMP180;5068;51.286;7.518;2023-10-19T06:59:28;97185.00;;;15.60
10058;BMP180;5068;51.286;7.518;2023-10-19T07:01:07;97189.00;;;15.60
10058;BMP180;5068;51.286;7.518;2023-10-19T07:02:41;97198.00;;;15.60
10058;BMP180;5068;51.286;7.518;2023-10-19T07:04:15;97190.00;;;15.60
10058;BMP180;5068;51.286;7.518;2023-10-19T07:05:48;97188.00;;;15.60
10058;BMP180;5068;51.286;7.518;2023-10-19T07:07:21;97200.00;;;15.60
10058;BMP180;5068;51.286;7.518;2023-10-19T07:08:54;97200.00;;;15.60
10058;BMP180;5068;51.286;7.518;2023-10-19T07:10:30;97200.00;;;15.60
10058;BMP180;5068;51.286;7.518;2023-10-19T07:12:04;97194.00;;;15.60
10058;BMP180;5068;51.286;7.518;2023-10-19T07:13:37;97194.00;;;15.60
10058;BMP180;5068;51.286;7.518;2023-10-19T07:15:13;97179.00;;;15.70
10058;BMP180;5068;51.286;7.518;2023-10-19T07:16:46;97191.00;;;15.70
10058;BMP180;5068;51.286;7.518;2023-10-19T07:18:19;97192.00;;;15.70
10058;BMP180;5068;51.286;7.518;2023-10-19T07:19:51;97186.00;;;15.70
10058;BMP180;5068;51.286;7.518;2023-10-19T07:21:24;97191.00;;;15.70
10058;BMP180;5068;51.286;7.518;2023-10-19T07:22:58;97189.00;;;15.70
10058;BMP180;5068;51.286;7.518;2023-10-19T07:24:35;97197.00;;;15.80
10058;BMP180;5068;51.286;7.518;2023-10-19T07:26:11;97195.00;;;15.80
10058;BMP180;5068;51.286;7.518;2023-10-19T07:27:46;97194.00;;;15.80
10058;BMP180;5068;51.286;7.518;2023-10-19T07:29:18;97193.00;;;15.80
10058;BMP180;5068;51.286;7.518;2023-10-19T07:30:52;97199.00;;;15.80
10058;BMP180;5068;51.286;7.518;2023-10-19T07:32:25;97200.00;;;15.80
10058;BMP180;5068;51.286;7.518;2023-10-19T07:34:15;97196.00;;;15.80
10058;BMP180;5068;51.286;7.518;2023-10-19T07:35:50;97203.00;;;15.90
10058;BMP180;5068;51.286;7.518;2023-10-19T07:37:24;97199.00;;;15.90
10058;BMP180;5068;51.286;7.518;2023-10-19T07:38:59;97201.00;;;15.90
10058;BMP180;5068;51.286;7.518;2023-10-19T07:40:31;97207.00;;;15.90
10058;BMP180;5068;51.286;7.518;2023-10-19T07:42:06;97205.00;;;15.90
10058;BMP180;5068;51.286;7.518;2023-10-19T07:43:39;97220.00;;;16.00
10058;BMP180;5068;51.286;7.518;2023-10-19T07:45:12;97211.00;;;16.00
10058;BMP180;5068;51.286;7.518;2023-10-19T07:46:44;97220.00;;;16.00
10058;BMP180;5068;51.286;7.518;2023-10-19T07:48:18;97221.00;;;16.00
10058;BMP180;5068;51.286;7.518;2023-10-19T07:49:50;97216.00;;;16.00
10058;BMP180;5068;51.286;7.518;2023-10-19T07:51:26;97214.00;;;16.00
10058;BMP180;5068;51.286;7.518;2023-10-19T07:52:59;97218.00;;;16.10
10058;BMP180;5068;51.286;7.518;2023-10-19T07:54:32;97211.00;;;16.10
10058;BMP180;5068;51.286;7.518;2023-10-19T07:56:05;97209.00;;;16.10
10058;BMP180;5068;51.286;7.518;2023-10-19T07:57:40;97211.00;;;16.10
10058;BMP180;5068;51.286;7.518;2023-10-19T07:59:12;97209.00;;;16.10
10058;BMP180;5068;51.286;7.518;2023-10-19T08:00:46;97214.00;;;16.20
10058;BMP180;5068;51.286;7.518;2023-10-19T08:02:19;97208.00;;;16.20
10058;BMP180;5068;51.286;7.518;2023-10-19T08:03:52;97207.00;;;16.20
10058;BMP180;5068;51.286;7.518;2023-10-19T08:05:25;97205.00;;;16.30
10058;BMP180;5068;51.286;7.518;2023-10-19T08:06:58;97205.00;;;16.30
10058;BMP180;5068;51.286;7.518;2023-10-19T08:08:31;97210.00;;;16.30
10058;BMP180;5068;51.286;7.518;2023-10-19T08:10:08;97212.00;;;16.40
10058;BMP180;5068;51.286;7.518;2023-10-19T08:11:42;97223.00;;;16.40
10058;BMP180;5068;51.286;7.518;2023-10-19T08:13:16;97221.00;;;16.40
10058;BMP180;5068;51.286;7.518;2023-10-19T08:14:49;97221.00;;;16.40
10058;BMP180;5068;51.286;7.518;2023-10-19T08:16:22;97222.00;;;16.40
10058;BMP180;5068;51.286;7.518;2023-10-19T08:17:56;97220.00;;;16.50
10058;BMP180;5068;51.286;7.518;2023-10-19T08:19:29;97219.00;;;16.50
10058;BMP180;5068;51.286;7.518;2023-10-19T08:21:03;97217.00;;;16.50
10058;BMP180;5068;51.286;7.518;2023-10-19T08:22:37;97212.00;;;16.50
10058;BMP180;5068;51.286;7.518;2023-10-19T08:24:09;97217.00;;;16.60
10058;BMP180;5068;51.286;7.518;2023-10-19T08:25:45;97215.00;;;16.60
10058;BMP180;5068;51.286;7.518;2023-10-19T08:27:28;97212.00;;;16.60
10058;BMP180;5068;51.286;7.518;2023-10-19T08:29:03;97205.00;;;16.70
10058;BMP180;5068;51.286;7.518;2023-10-19T08:30:44;97203.00;;;16.70
10058;BMP180;5068;51.286;7.518;2023-10-19T08:32:29;97210.00;;;16.70
10058;BMP180;5068;51.286;7.518;2023-10-19T08:34:04;97218.00;;;16.80
10058;BMP180;5068;51.286;7.518;2023-10-19T08:35:38;97217.00;;;16.80
10058;BMP180;5068;51.286;7.518;2023-10-19T08:37:11;97208.00;;;16.80
10058;BMP180;5068;51.286;7.518;2023-10-19T08:38:43;97206.00;;;16.90
10058;BMP180;5068;51.286;7.518;2023-10-19T08:40:17;97207.00;;;16.90
10058;BMP180;5068;51.286;7.518;2023-10-19T08:41:52;97200.00;;;16.90
10058;BMP180;5068;51.286;7.518;2023-10-19T08:43:25;97204.00;;;17.00
10058;BMP180;5068;51.286;7.518;2023-10-19T08:45:01;97205.00;;;17.00
10058;BMP180;5068;51.286;7.518;2023-10-19T08:46:35;97207.00;;;17.00
10058;BMP180;5068;51.286;7.518;2023-10-19T08:48:08;97208.00;;;17.00
10058;BMP180;5068;51.286;7.518;2023-10-19T08:49:42;97208.00;;;17.10
10058;BMP180;5068;51.286;7.518;2023-10-19T08:51:15;97208.00;;;17.10
10058;BMP180;5068;51.286;7.518;2023-10-19T08:52:53;97191.00;;;17.10
10058;BMP180;5068;51.286;7.518;2023-10-19T08:54:25;97187.00;;;17.20
10058;BMP180;5068;51.286;7.518;2023-10-19T08:55:59;97189.00;;;17.20
10058;BMP180;5068;51.286;7.518;2023-10-19T08:57:33;97195.00;;;17.20
10058;BMP180;5068;51.286;7.518;2023-10-19T08:59:06;97187.00;;;17.30
10058;BMP180;5068;51.286;7.518;2023-10-19T09:00:48;97191.00;;;17.30
10058;BMP180;5068;51.286;7.518;2023-10-19T09:02:23;97194.00;;;17.40
10058;BMP180;5068;51.286;7.518;2023-10-19T09:03:58;97192.00;;;17.40
10058;BMP180;5068;51.286;7.518;2023-10-19T09:05:30;97193.00;;;17.50
10058;BMP180;5068;51.286;7.518;2023-10-19T09:07:04;97195.00;;;17.50
10058;BMP180;5068;51.286;7.518;2023-10-19T09:08:42;97186.00;;;17.60
10058;BMP180;5068;51.286;7.518;2023-10-19T09:10:17;97194.00;;;17.60
10058;BMP180;5068;51.286;7.518;2023-10-19T09:11:51;97181.00;;;17.60
10058;BMP180;5068;51.286;7.518;2023-10-19T09:13:24;97177.00;;;17.70
10058;BMP180;5068;51.286;7.518;2023-10-19T09:14:58;97183.00;;;17.70